Skip to main content

Alexandria Square

Middleboro Dr.
Raleigh, NC 27612

Alexandria Square

Alexandria Square is a townhome community located off of Lead Mine Rd, just up the street from Crabtree Valley Mall and I-440.  Positioned well within North Raleigh, with a 27612 zip code, this neighborhood boasts close proximity to restaurants, shopping, exercise gyms, medical facilities, and more!  In addition, NC State is ~6.1 miles nearby, Downtown Raleigh is 6.4 miles away and RDU International Airport is a close 7.2 miles!

Most of the homes range in price from the high $190's to over $240's, with square footage ranging from ~1800 - ~2400 square feet.  The townhomes have either 3 or 4 bedrooms with 3.5 bathrooms, and come with either a parking pad or a garage. Depending on the home, some homes have granite countertops, and gas log fireplaces.

If it is convience you want, with a lot of square footage at a good price, then Alexandria Square is for you!

Ready for Your Personal Tour of Alexandria Square?

If so, contact any member of the expert North Raleigh real estate team here at LindaCraft.com to schedule your tour of Alexandria Square today!

Sample Alexandria Square Homes for Sale

Recently Sold in Alexandria Square

Price Beds Baths SQ FT Address City Zip Sold Date
$140,000 3 2 (full) 1 (half) 1396 5063 TALL PINES COURT #NA Raleigh 27609 09/18/2019
$1,000,000 3 3 (full) 1 (half) 3456 1908 PARK DRIVE Raleigh 27605 09/18/2019
$132,000 3 1 (full) 1 (half) 1242 4810D BLUE BIRD COURT #D Raleigh 27606 09/18/2019
$235,000 4 3 (full) 2040 3700 CHARLESTON PARK DRIVE Raleigh 27604 09/18/2019
$325,000 3 2 (full) 1608 305 WESTBROOK DRIVE Raleigh 27615 09/18/2019
$270,000 3 2 (full) 1183 1004 CASPAN STREET Raleigh 27610 09/16/2019
$363,000 3 2 (full) 2303 8701 BRANDON STATION ROAD Raleigh 27613 09/18/2019
$412,000 4 2 (full) 1 (half) 2721 2604 FALLS RIVER AVENUE Raleigh 27614 09/18/2019
$350,000 3 2 (full) 1 (half) 2512 2613 LIZEI STREET Raleigh 27616 09/18/2019
$300,000 5 3 (full) 2198 2613 HALFHITCH TRAIL Raleigh 27615 09/18/2019
$175,000 3 2 (full) 1 (half) 1717 4913 BLUE ROCK COURT Raleigh 27610 09/18/2019
$428,900 4 3 (full) 2840 5120 BARTONS ROAD Raleigh 27613 09/18/2019
$1,230,000 4 4 (full) 1 (half) 4268 6506 NEW MARKET WAY Raleigh 27615 09/18/2019
$158,000 2 2 (full) 1 (half) 1244 2025 TURTLE POINT DRIVE Raleigh 27604 09/18/2019
$160,000 2 1 (full) 1 (half) 1227 1526 TOWNSHIP CIRCLE Raleigh 27609 09/13/2019
$224,900 3 3 (full) 1 (half) 1661 5108 POWELL TOWNES WAY . Raleigh 27606 09/18/2019
$321,100 3 2 (full) 1 (half) 1829 7824 HIGHLANDVIEW CIRCLE Raleigh 27613 09/17/2019
$112,000 2 1 (full) 1 (half) 1016 1110 SCHAUB DRIVE #B Raleigh 27606 09/17/2019
$237,500 3 3 (full) 2268 6579 NEW MARKET WAY #6579 Raleigh 27615 09/16/2019
$232,000 3 2 (full) 1761 5417 CARDINAL GROVE BOULEVARD Raleigh 27616 09/17/2019
$265,500 3 2 (full) 1 (half) 2223 3902 VESTA DRIVE Raleigh 27603 09/17/2019
$207,500 3 2 (full) 1555 8033 BRIGHT OAK TRAIL Raleigh 27616 09/16/2019
$245,000 3 2 (full) 1 (half) 2205 4805 JOHN WHITE DRIVE Raleigh 27610 09/17/2019
$246,000 3 2 (full) 1 (half) 2033 4070 LANDOVER LANE Raleigh 27616 09/17/2019
$389,900 4 3 (full) 1 (half) 2838 8012 KINGSLAND DRIVE Raleigh 27613 09/17/2019
$275,000 5 3 (full) 2572 3719 CHARLESTON PARK DRIVE Raleigh 27604 09/17/2019
$183,000 3 2 (full) 1 (half) 1370 4409 WOODLAWN DRIVE Raleigh 27616 09/17/2019
$267,000 3 2 (full) 1 (half) 1666 12133 MABLEDON COURT Raleigh 27613 09/17/2019
$625,000 4 4 (full) 1 (half) 4926 6840 VICEROY DRIVE Raleigh 27613 09/17/2019
$180,000 3 2 (full) 1280 7109 SPANGLERS SPRING WAY Raleigh 27610 09/17/2019
$131,000 2 1 (full) 1 (half) 1056 4818 BLUE BIRD COURT #D Raleigh 27606 08/30/2019
$1,685,000 6 5 (full) 1 (half) 5043 313 FORSYTH STREET Raleigh 27609 09/17/2019
$215,500 4 2 (full) 1 (half) 2061 5277 WINDY HILL DRIVE Raleigh 27609 09/16/2019
$348,000 3 2 (full) 1 (half) 2456 8617 BROOKDALE DRIVE Raleigh 27613 09/16/2019
$1,190,000 4 4 (full) 2 (half) 4604 1124 SHADOW LAKE DRIVE Raleigh 27615 09/09/2019
$245,000 3 2 (full) 1 (half) 1878 4209 CHELSFORD PLACE Raleigh 27604 09/17/2019
$315,000 3 2 (full) 1 (half) 1823 2809 BOLO TRAIL Raleigh 27615 09/16/2019
$239,000 3 2 (full) 1 (half) 1927 7842 BRAEFIELD DRIVE Raleigh 27616 09/17/2019
$212,000 2 2 (full) 1 (half) 1257 9816 LAYLA AVENUE Raleigh 27617 09/16/2019
$455,000 4 3 (full) 1 (half) 2819 10012 WHITESTONE ROAD Raleigh 27615 09/16/2019
$333,500 4 3 (full) 3029 1021 TRAVERN DRIVE Raleigh 27603 09/17/2019
$235,000 3 2 (full) 1 (half) 1864 311 INKSTER COVE Raleigh 27603 08/30/2019
$187,000 3 2 (full) 1 (half) 1622 3205 WARM SPRINGS LANE Raleigh 27610 09/16/2019
$273,500 3 2 (full) 1 (half) 1711 2717 CYPRESS POINT LANE Raleigh 27614 09/16/2019
$195,000 3 2 (full) 1 (half) 1420 8954 COMMONS TOWNES DRIVE Raleigh 27616 09/16/2019
$1,314,000 4 4 (full) 2 (half) 4584 1420 LILY ESTATES DRIVE Raleigh 27614 09/16/2019
$204,900 3 2 (full) 1 (half) 1571 6008 PORTERDALE DRIVE Raleigh 27610 09/16/2019
$484,000 5 4 (full) 1 (half) 3416 1108 HICKORY POND COURT Raleigh 27612 09/16/2019
$205,000 4 2 (full) 1 (half) 1625 3408 MOGOLLON COURT Raleigh 27610 09/16/2019
$636,500 4 3 (full) 1 (half) 3831 3104 TWIN LEAF DRIVE Raleigh 27613 09/16/2019
$315,000 3 2 (full) 1 (half) 2587 9509 VIRA DRIVE Raleigh 27617 09/16/2019
$145,000 2 2 (full) 834 4040 PEARL ROAD Raleigh 27610 09/16/2019
$241,500 3 1 (full) 1044 2406 STEVENS ROAD Raleigh 27610 09/16/2019
$470,000 3 3 (full) 1 (half) 2950 4604 GROUNDNUT COURT Raleigh 27613 09/16/2019
$322,900 2 2 (full) 1550 10210 SABLEWOOD DRIVE #105 Raleigh 27617 08/26/2019
$1,350,000 4 4 (full) 2 (half) 5406 5312 NEWSTEAD MANOR LANE Raleigh 27606 09/16/2019
$243,000 5 3 (full) 1 (half) 2420 4909 QUARRYMAN ROAD Raleigh 27610 09/16/2019
$350,000 2 2 (full) 1 (half) 1353 292 E DAVIE STREET #292 Raleigh 27601 09/16/2019
$214,600 3 2 (full) 1 (half) 1819 4740 PRINCESS ANNA MARIE LANE Raleigh 27610 09/16/2019
$557,500 4 3 (full) 1 (half) 3459 3929 BENTLEY BROOK DRIVE Raleigh 27612 09/13/2019

The data relating to real estate for sale on this website comes in part from the IDX© Program of the Triangle Multiple Listing Services, Inc. of Cary. Real estate listings held by brokerage firms other than Linda Craft & Team are marked with the IDX© logo or the IDX© thumbnail logo and the detailed information about them includes the name of the listing brokers.
The listing broker has attempted to offer accurate data, but buyers are advised to confirm all items.
This data was last updated on: 09/18/19 11:14 AM. A full data refresh was last performed on: 09/17/19 02:54 PM.
** Information deemed reliable but not guaranteed ** Closed (sold) listings may have been listed and/or sold by a real estate firm other than the firm(s) featured on this website. Closed data is not available until the sale of the property is recorded in the MLS. Home sale data is not an appraisal, CMA, competitive or comparative market analysis, or home valuation of any property.
Copyright © 2019 Triangle MLS, Inc. of North Carolina. All rights reserved.

Explore Triangle Areas